Time,TemperatureF,DewpointF,PressureIn,WindDirection,WindDirectionDegrees,WindSpeedMPH,WindSpeedGustMPH,Humidity,HourlyPrecipIn,Conditions,Clouds,dailyrainin,SoftwareType,DateUTC
2013-06-12 00:02:00,73.2,43.9,27.43,North,0,0.0,0.0,35,0.00,CLR,OVC,0.00,WeatherDisplay:10.37,2013-06-12 05:02:00,
2013-06-12 00:07:00,73.2,44.7,27.43,North,0,0.0,0.0,36,0.00,CLR,OVC,0.00,WeatherDisplay:10.37,2013-06-12 05:07:00,
2013-06-12 00:12:00,73.0,44.5,27.43,North,0,0.0,0.0,36,0.00,CLR,OVC,0.00,WeatherDisplay:10.37,2013-06-12 05:12:00,
2013-06-12 00:17:00,73.0,44.5,27.43,North,0,0.0,0.0,36,0.00,CLR,OVC,0.00,WeatherDisplay:10.37,2013-06-12 05:17:00,
2013-06-12 00:22:00,72.9,45.1,27.43,North,0,0.0,0.0,37,0.00,CLR,OVC,0.00,WeatherDisplay:10.37,2013-06-12 05:22:00,
2013-06-12 00:27:00,72.7,44.9,27.43,North,0,0.0,0.0,37,0.00,CLR,OVC,0.00,WeatherDisplay:10.37,2013-06-12 05:27:00,
2013-06-12 00:32:00,72.7,45.6,27.43,North,0,0.0,0.0,38,0.00,CLR,OVC,0.00,WeatherDisplay:10.37,2013-06-12 05:32:00,
2013-06-12 00:37:00,72.5,45.4,27.43,North,0,0.0,0.0,38,0.00,CLR,OVC,0.00,WeatherDisplay:10.37,2013-06-12 05:37:00,
2013-06-12 00:42:00,72.5,46.1,27.43,North,0,0.0,0.0,39,0.00,CLR,OVC,0.00,WeatherDisplay:10.37,2013-06-12 05:42:00,
2013-06-12 00:47:00,72.3,46.0,27.43,North,0,0.0,0.0,39,0.00,CLR,OVC,0.00,WeatherDisplay:10.37,2013-06-12 05:47:00,
2013-06-12 00:52:00,72.3,46.6,27.43,North,0,0.0,0.0,40,0.00,CLR,OVC,0.00,WeatherDisplay:10.37,2013-06-12 05:52:00,
2013-06-12 00:57:00,72.1,46.5,27.43,North,0,0.0,0.0,40,0.00,CLR,OVC,0.00,WeatherDisplay:10.37,2013-06-12 05:57:00,
2013-06-12 01:02:00,72.1,46.5,27.43,North,0,0.0,0.0,40,0.00,CLR,OVC,0.00,WeatherDisplay:10.37,2013-06-12 06:02:00,
2013-06-12 01:07:00,72.1,47.1,27.43,North,0,0.0,0.0,41,0.00,CLR,OVC,0.00,WeatherDisplay:10.37,2013-06-12 06:07:00,
2013-06-12 01:12:00,72.0,47.0,27.43,North,0,0.0,0.0,41,0.00,CLR,OVC,0.00,WeatherDisplay:10.37,2013-06-12 06:12:00,
2013-06-12 01:17:00,71.8,46.8,27.43,North,0,0.0,0.0,41,0.00,CLR,OVC,0.00,WeatherDisplay:10.37,2013-06-12 06:17:00,
2013-06-12 01:22:00,71.8,47.4,27.43,North,0,0.0,0.0,42,0.00,CLR,OVC,0.00,WeatherDisplay:10.37,2013-06-12 06:22:00,
2013-06-12 01:27:00,71.6,47.3,27.43,North,0,0.0,0.0,42,0.00,CLR,OVC,0.00,WeatherDisplay:10.37,2013-06-12 06:27:00,
2013-06-12 01:32:00,71.6,47.3,27.43,North,0,0.0,0.0,42,0.00,CLR,OVC,0.00,WeatherDisplay:10.37,2013-06-12 06:32:00,
2013-06-12 01:37:00,71.4,47.7,27.43,North,0,0.0,0.0,43,0.00,CLR,OVC,0.00,WeatherDisplay:10.37,2013-06-12 06:37:00,
2013-06-12 01:42:00,71.4,47.7,27.43,North,0,0.0,0.0,43,0.00,CLR,OVC,0.00,WeatherDisplay:10.37,2013-06-12 06:42:00,
2013-06-12 01:47:00,71.2,48.2,27.43,North,0,0.0,0.0,44,0.00,CLR,OVC,0.00,WeatherDisplay:10.37,2013-06-12 06:47:00,
2013-06-12 01:52:00,71.1,48.0,27.43,North,0,0.0,0.0,44,0.00,CLR,OVC,0.00,WeatherDisplay:10.37,2013-06-12 06:52:00,
2013-06-12 01:57:00,71.1,48.0,27.43,North,0,0.0,0.0,44,0.00,CLR,OVC,0.00,WeatherDisplay:10.37,2013-06-12 06:57:00,
2013-06-12 02:02:00,71.1,48.0,27.43,North,0,0.0,0.0,44,0.00,CLR,OVC,0.00,WeatherDisplay:10.37,2013-06-12 07:02:00,
2013-06-12 02:07:00,70.9,48.5,27.43,North,0,0.0,0.0,45,0.00,CLR,OVC,0.00,WeatherDisplay:10.37,2013-06-12 07:07:00,
2013-06-12 02:12:00,70.9,48.5,27.43,North,0,0.0,0.0,45,0.00,CLR,OVC,0.00,WeatherDisplay:10.37,2013-06-12 07:12:00,
2013-06-12 02:17:00,70.9,48.5,27.43,North,0,0.0,0.0,45,0.00,CLR,OVC,0.00,WeatherDisplay:10.37,2013-06-12 07:17:00,
2013-06-12 02:22:00,70.7,48.9,27.43,North,0,0.0,0.0,46,0.00,CLR,OVC,0.00,WeatherDisplay:10.37,2013-06-12 07:22:00,
2013-06-12 02:27:00,70.7,48.9,27.43,North,0,0.0,0.0,46,0.00,CLR,OVC,0.00,WeatherDisplay:10.37,2013-06-12 07:27:00,
2013-06-12 02:32:00,70.7,48.9,27.43,North,0,0.0,0.0,46,0.00,CLR,OVC,0.00,WeatherDisplay:10.37,2013-06-12 07:32:00,
2013-06-12 02:37:00,70.7,48.9,27.43,North,0,0.0,0.0,46,0.00,CLR,OVC,0.00,WeatherDisplay:10.37,2013-06-12 07:37:00,
2013-06-12 02:42:00,70.5,49.3,27.43,North,0,0.0,0.0,47,0.00,CLR,OVC,0.00,WeatherDisplay:10.37,2013-06-12 07:42:00,
2013-06-12 02:47:00,70.5,49.3,27.43,North,0,0.0,0.0,47,0.00,CLR,OVC,0.00,WeatherDisplay:10.37,2013-06-12 07:47:00,
2013-06-12 02:52:00,70.5,49.9,27.43,North,0,0.0,0.0,48,0.00,CLR,OVC,0.00,WeatherDisplay:10.37,2013-06-12 07:52:00,
2013-06-12 02:57:00,70.5,49.9,27.43,North,0,0.0,0.0,48,0.00,CLR,OVC,0.00,WeatherDisplay:10.37,2013-06-12 07:57:00,
2013-06-12 03:02:00,70.5,49.9,27.43,North,0,0.0,0.0,48,0.00,CLR,OVC,0.00,WeatherDisplay:10.37,2013-06-12 08:02:00,
2013-06-12 03:07:00,70.5,50.4,27.43,North,0,0.0,0.0,49,0.00,CLR,OVC,0.00,WeatherDisplay:10.37,2013-06-12 08:07:00,
2013-06-12 03:12:00,70.5,50.4,27.43,North,0,0.0,0.0,49,0.00,CLR,OVC,0.00,WeatherDisplay:10.37,2013-06-12 08:12:00,
2013-06-12 03:17:00,70.5,50.4,27.43,North,0,0.0,0.0,49,0.00,CLR,OVC,0.00,WeatherDisplay:10.37,2013-06-12 08:17:00,
2013-06-12 03:22:00,70.3,50.8,27.43,North,0,0.0,0.0,50,0.00,CLR,OVC,0.00,WeatherDisplay:10.37,2013-06-12 08:22:00,
2013-06-12 13:26:00,92.7,38.2,25.78,North,0,0.0,0.0,15,0.00,CLR,OVC,0.00,WeatherDisplay:10.37,2013-06-12 18:26:00,
2013-06-12 13:31:00,93.2,16.4,27.19,North,0,0.0,0.0,6,0.00,CLR,OVC,0.00,WeatherDisplay:10.37,2013-06-12 18:31:00,
2013-06-12 13:36:00,92.8,19.7,27.19,North,0,0.0,0.0,7,0.00,CLR,OVC,0.00,WeatherDisplay:10.37,2013-06-12 18:36:00,
2013-06-12 13:41:00,92.3,19.3,27.19,North,0,0.0,0.0,7,0.00,CLR,OVC,0.00,WeatherDisplay:10.37,2013-06-12 18:41:00,
2013-06-12 13:46:00,92.1,19.2,27.19,North,0,0.0,0.0,7,0.00,CLR,OVC,0.00,WeatherDisplay:10.37,2013-06-12 18:46:00,
2013-06-12 13:51:00,92.3,19.3,27.19,North,0,0.0,0.0,7,0.00,CLR,OVC,0.00,WeatherDisplay:10.37,2013-06-12 18:51:00,
2013-06-12 13:56:00,91.9,19.1,27.19,North,0,0.0,0.0,7,0.00,CLR,OVC,0.00,WeatherDisplay:10.37,2013-06-12 18:56:00,
2013-06-12 14:01:00,91.8,18.9,27.19,North,0,0.0,0.0,7,0.00,FEW,OVC,0.00,WeatherDisplay:10.37,2013-06-12 19:01:00,
2013-06-12 14:07:00,91.4,18.7,27.19,North,0,0.0,0.0,7,0.00,FEW,OVC,0.00,WeatherDisplay:10.37,2013-06-12 19:07:00,
2013-06-12 14:12:00,91.2,18.5,27.19,North,0,0.0,0.0,7,0.00,FEW,OVC,0.00,WeatherDisplay:10.37,2013-06-12 19:12:00,
2013-06-12 14:17:00,90.7,18.1,27.19,North,0,0.0,0.0,7,0.00,FEW,OVC,0.00,WeatherDisplay:10.37,2013-06-12 19:17:00,
2013-06-12 14:22:00,90.0,17.6,27.19,North,0,0.0,0.0,7,0.00,FEW,OVC,0.00,WeatherDisplay:10.37,2013-06-12 19:22:00,
2013-06-12 14:27:00,90.3,17.9,27.19,North,0,0.0,0.0,7,0.00,FEW,OVC,0.00,WeatherDisplay:10.37,2013-06-12 19:27:00,
2013-06-12 14:32:00,90.9,18.3,27.19,North,0,0.0,0.0,7,0.00,FEW,OVC,0.00,WeatherDisplay:10.37,2013-06-12 19:32:00,
2013-06-12 14:37:00,91.0,18.4,27.19,North,0,0.0,0.0,7,0.00,FEW,OVC,0.00,WeatherDisplay:10.37,2013-06-12 19:37:00,
2013-06-12 14:42:00,90.9,18.3,27.19,North,0,0.0,0.0,7,0.00,FEW,OVC,0.00,WeatherDisplay:10.37,2013-06-12 19:42:00,
2013-06-12 14:47:00,90.5,18.0,27.19,North,0,0.0,0.0,7,0.00,FEW,OVC,0.00,WeatherDisplay:10.37,2013-06-12 19:47:00,
2013-06-12 14:52:00,90.0,17.6,27.19,North,0,0.0,0.0,7,0.00,FEW,OVC,0.00,WeatherDisplay:10.37,2013-06-12 19:52:00,
2013-06-12 14:57:00,89.2,20.2,27.19,North,0,0.0,0.0,8,0.00,FEW,OVC,0.00,WeatherDisplay:10.37,2013-06-12 19:57:00,
2013-06-12 15:02:00,88.3,19.5,27.19,North,0,0.0,0.0,8,0.00,BKN,OVC,0.00,WeatherDisplay:10.37,2013-06-12 20:02:00,
2013-06-12 15:07:00,87.4,26.5,27.19,North,0,0.0,0.0,11,0.00,BKN,OVC,0.00,WeatherDisplay:10.37,2013-06-12 20:07:00,
2013-06-12 15:12:00,87.6,26.6,27.19,North,0,0.0,0.0,11,0.00,BKN,OVC,0.00,WeatherDisplay:10.37,2013-06-12 20:12:00,
2013-06-12 15:17:00,88.2,31.1,27.19,North,0,0.0,0.0,13,0.00,BKN,OVC,0.00,WeatherDisplay:10.37,2013-06-12 20:17:00,
2013-06-12 15:22:00,88.5,25.0,27.19,North,0,0.0,0.0,10,0.00,BKN,OVC,0.00,WeatherDisplay:10.37,2013-06-12 20:22:00,
2013-06-12 15:27:00,89.6,25.8,27.19,North,0,0.0,0.0,10,0.00,BKN,OVC,0.00,WeatherDisplay:10.37,2013-06-12 20:27:00,
2013-06-12 15:32:00,90.1,17.8,27.19,North,0,0.0,0.0,7,0.00,BKN,OVC,0.00,WeatherDisplay:10.37,2013-06-12 20:32:00,
2013-06-12 15:37:00,90.1,17.8,27.19,North,0,0.0,0.0,7,0.00,BKN,OVC,0.00,WeatherDisplay:10.37,2013-06-12 20:37:00,
2013-06-12 15:42:00,90.5,18.0,27.19,North,0,0.0,0.0,7,0.00,BKN,OVC,0.00,WeatherDisplay:10.37,2013-06-12 20:42:00,
2013-06-12 15:47:00,91.0,18.4,27.19,North,0,0.0,0.0,7,0.00,BKN,OVC,0.00,WeatherDisplay:10.37,2013-06-12 20:47:00,
2013-06-12 15:52:00,91.2,18.5,27.19,North,0,0.0,0.0,7,0.00,BKN,OVC,0.00,WeatherDisplay:10.37,2013-06-12 20:52:00,
2013-06-12 15:57:00,91.2,18.5,27.19,North,0,0.0,0.0,7,0.00,BKN,OVC,0.00,WeatherDisplay:10.37,2013-06-12 20:57:00,
2013-06-12 16:02:00,91.6,18.8,27.19,North,0,0.0,0.0,7,0.00,FEW,OVC,0.00,WeatherDisplay:10.37,2013-06-12 21:02:00,
2013-06-12 16:07:00,91.2,18.5,27.19,North,0,0.0,0.0,7,0.00,FEW,OVC,0.00,WeatherDisplay:10.37,2013-06-12 21:07:00,
2013-06-12 16:12:00,90.7,18.1,27.19,North,0,0.0,0.0,7,0.00,FEW,OVC,0.00,WeatherDisplay:10.37,2013-06-12 21:12:00,
2013-06-12 16:17:00,90.3,17.9,27.19,North,0,0.0,0.0,7,0.00,FEW,OVC,0.00,WeatherDisplay:10.37,2013-06-12 21:17:00,
2013-06-12 16:22:00,90.3,17.9,27.19,North,0,0.0,0.0,7,0.00,FEW,OVC,0.00,WeatherDisplay:10.37,2013-06-12 21:22:00,
2013-06-12 16:27:00,90.5,18.0,27.19,North,0,0.0,0.0,7,0.00,FEW,OVC,0.00,WeatherDisplay:10.37,2013-06-12 21:27:00,
2013-06-12 16:32:00,90.5,18.0,27.19,North,0,0.0,0.0,7,0.00,FEW,OVC,0.00,WeatherDisplay:10.37,2013-06-12 21:32:00,
2013-06-12 16:37:00,90.7,18.1,27.19,North,0,0.0,0.0,7,0.00,FEW,OVC,0.00,WeatherDisplay:10.37,2013-06-12 21:37:00,
2013-06-12 16:42:00,90.1,17.8,27.19,North,0,0.0,0.0,7,0.00,FEW,OVC,0.00,WeatherDisplay:10.37,2013-06-12 21:42:00,
2013-06-12 16:47:00,89.2,20.2,27.19,North,0,0.0,0.0,8,0.00,FEW,OVC,0.00,WeatherDisplay:10.37,2013-06-12 21:47:00,
2013-06-12 16:52:00,88.3,19.5,27.19,North,0,0.0,0.0,8,0.00,FEW,OVC,0.00,WeatherDisplay:10.37,2013-06-12 21:52:00,
2013-06-12 16:57:00,88.5,25.0,27.19,North,0,0.0,0.0,10,0.00,FEW,OVC,0.00,WeatherDisplay:10.37,2013-06-12 21:57:00,
2013-06-12 17:02:00,89.2,25.5,27.19,North,0,0.0,0.0,10,0.00,BKN,OVC,0.00,WeatherDisplay:10.37,2013-06-12 22:02:00,
2013-06-12 17:07:00,89.6,25.8,27.19,North,0,0.0,0.0,10,0.00,BKN,OVC,0.00,WeatherDisplay:10.37,2013-06-12 22:07:00,
2013-06-12 17:12:00,89.4,25.7,27.19,North,0,0.0,0.0,10,0.00,BKN,OVC,0.00,WeatherDisplay:10.37,2013-06-12 22:12:00,
2013-06-12 17:17:00,89.4,25.7,27.19,North,0,0.0,0.0,10,0.00,BKN,OVC,0.00,WeatherDisplay:10.37,2013-06-12 22:17:00,
2013-06-12 17:22:00,89.4,25.7,27.19,North,0,0.0,0.0,10,0.00,BKN,OVC,0.00,WeatherDisplay:10.37,2013-06-12 22:22:00,
2013-06-12 17:27:00,88.9,25.3,27.19,North,0,0.0,0.0,10,0.00,BKN,OVC,0.00,WeatherDisplay:10.37,2013-06-12 22:27:00,
2013-06-12 17:32:00,88.3,24.8,27.19,North,0,0.0,0.0,10,0.00,BKN,OVC,0.00,WeatherDisplay:10.37,2013-06-12 22:32:00,
2013-06-12 17:37:00,88.3,24.8,27.19,North,0,0.0,0.0,10,0.00,BKN,OVC,0.00,WeatherDisplay:10.37,2013-06-12 22:37:00,
2013-06-12 17:42:00,88.2,24.7,27.19,North,0,0.0,0.0,10,0.00,BKN,OVC,0.00,WeatherDisplay:10.37,2013-06-12 22:42:00,
2013-06-12 17:47:00,87.8,24.4,27.19,North,0,0.0,0.0,10,0.00,BKN,OVC,0.00,WeatherDisplay:10.37,2013-06-12 22:47:00,
2013-06-12 17:52:00,87.6,26.6,27.19,North,0,0.0,0.0,11,0.00,BKN,OVC,0.00,WeatherDisplay:10.37,2013-06-12 22:52:00,
2013-06-12 17:57:00,87.4,26.5,27.19,North,0,0.0,0.0,11,0.00,BKN,OVC,0.00,WeatherDisplay:10.37,2013-06-12 22:57:00,
2013-06-12 18:02:00,87.1,26.2,27.19,North,0,0.0,0.0,11,0.00,CLR,OVC,0.00,WeatherDisplay:10.37,2013-06-12 23:02:00,
2013-06-12 18:07:00,86.7,25.9,27.19,North,0,0.0,0.0,11,0.00,CLR,OVC,0.00,WeatherDisplay:10.37,2013-06-12 23:07:00,
2013-06-12 18:12:00,86.4,25.6,27.19,North,0,0.0,0.0,11,0.00,CLR,OVC,0.00,WeatherDisplay:10.37,2013-06-12 23:12:00,
2013-06-12 18:17:00,86.4,25.6,27.19,North,0,0.0,0.0,11,0.00,CLR,OVC,0.00,WeatherDisplay:10.37,2013-06-12 23:17:00,
2013-06-12 18:22:00,86.2,25.5,27.19,North,0,0.0,0.0,11,0.00,CLR,OVC,0.00,WeatherDisplay:10.37,2013-06-12 23:22:00,
2013-06-12 18:27:00,86.2,25.5,27.19,North,0,0.0,0.0,11,0.00,CLR,OVC,0.00,WeatherDisplay:10.37,2013-06-12 23:27:00,
2013-06-12 18:32:00,86.0,25.4,27.19,North,0,0.0,0.0,11,0.00,CLR,OVC,0.00,WeatherDisplay:10.37,2013-06-12 23:32:00,
2013-06-12 18:37:00,85.8,25.2,27.19,North,0,0.0,0.0,11,0.00,CLR,OVC,0.00,WeatherDisplay:10.37,2013-06-12 23:37:00,
2013-06-12 18:42:00,85.5,24.9,27.19,North,0,0.0,0.0,11,0.00,CLR,OVC,0.00,WeatherDisplay:10.37,2013-06-12 23:42:00,
2013-06-12 18:47:00,85.3,28.8,27.19,North,0,0.0,0.0,13,0.00,CLR,OVC,0.00,WeatherDisplay:10.37,2013-06-12 23:47:00,
2013-06-12 18:52:00,84.9,28.6,27.19,North,0,0.0,0.0,13,0.00,CLR,OVC,0.00,WeatherDisplay:10.37,2013-06-12 23:52:00,
2013-06-12 18:57:00,84.7,28.4,27.19,North,0,0.0,0.0,13,0.00,CLR,OVC,0.00,WeatherDisplay:10.37,2013-06-12 23:57:00,
2013-06-12 19:02:00,84.6,28.3,27.19,North,0,0.0,0.0,13,0.00,CLR,OVC,0.00,WeatherDisplay:10.37,2013-06-13 00:02:00,
2013-06-12 19:07:00,84.4,28.1,27.19,North,0,0.0,0.0,13,0.00,CLR,OVC,0.00,WeatherDisplay:10.37,2013-06-13 00:07:00,
2013-06-12 19:12:00,83.8,32.8,27.19,North,0,0.0,0.0,16,0.00,CLR,OVC,0.00,WeatherDisplay:10.37,2013-06-13 00:12:00,
2013-06-12 19:17:00,83.7,32.7,27.19,North,0,0.0,0.0,16,0.00,CLR,OVC,0.00,WeatherDisplay:10.37,2013-06-13 00:17:00,
2013-06-12 19:22:00,83.5,36.9,27.19,North,0,0.0,0.0,19,0.00,CLR,OVC,0.00,WeatherDisplay:10.37,2013-06-13 00:22:00,
2013-06-12 19:27:00,83.3,36.7,27.19,North,0,0.0,0.0,19,0.00,CLR,OVC,0.00,WeatherDisplay:10.37,2013-06-13 00:27:00,
2013-06-12 19:32:00,83.3,36.7,27.19,North,0,0.0,0.0,19,0.00,CLR,OVC,0.00,WeatherDisplay:10.37,2013-06-13 00:32:00,
2013-06-12 19:37:00,83.1,36.6,27.19,North,0,0.0,0.0,19,0.00,CLR,OVC,0.00,WeatherDisplay:10.37,2013-06-13 00:37:00,
2013-06-12 19:42:00,82.9,36.4,27.19,North,0,0.0,0.0,19,0.00,CLR,OVC,0.00,WeatherDisplay:10.37,2013-06-13 00:42:00,
2013-06-12 19:47:00,82.9,36.4,27.19,North,0,0.0,0.0,19,0.00,CLR,OVC,0.00,WeatherDisplay:10.37,2013-06-13 00:47:00,
2013-06-12 19:53:00,82.8,36.3,27.19,North,0,0.0,0.0,19,0.00,CLR,OVC,0.00,WeatherDisplay:10.37,2013-06-13 00:53:00,
2013-06-12 19:58:00,82.6,36.1,27.19,North,0,0.0,0.0,19,0.00,CLR,OVC,0.00,WeatherDisplay:10.37,2013-06-13 00:58:00,
2013-06-12 20:03:00,82.4,36.0,27.19,North,0,0.0,0.0,19,0.00,CLR,OVC,0.00,WeatherDisplay:10.37,2013-06-13 01:03:00,
2013-06-12 20:08:00,82.2,35.8,27.19,North,0,0.0,0.0,19,0.00,CLR,OVC,0.00,WeatherDisplay:10.37,2013-06-13 01:08:00,
2013-06-12 20:13:00,82.0,35.7,27.19,North,0,0.0,0.0,19,0.00,CLR,OVC,0.00,WeatherDisplay:10.37,2013-06-13 01:13:00,
2013-06-12 20:18:00,81.9,36.8,27.19,North,0,0.0,0.0,20,0.00,CLR,OVC,0.00,WeatherDisplay:10.37,2013-06-13 01:18:00,
2013-06-12 20:23:00,81.9,35.5,27.19,North,0,0.0,0.0,19,0.00,CLR,OVC,0.00,WeatherDisplay:10.37,2013-06-13 01:23:00,
2013-06-12 20:28:00,81.9,35.5,27.19,North,0,0.0,0.0,19,0.00,CLR,OVC,0.00,WeatherDisplay:10.37,2013-06-13 01:28:00,
2013-06-12 20:33:00,81.7,36.7,27.19,North,0,0.0,0.0,20,0.00,CLR,OVC,0.00,WeatherDisplay:10.37,2013-06-13 01:33:00,
2013-06-12 20:38:00,81.5,36.5,27.19,North,0,0.0,0.0,20,0.00,CLR,OVC,0.00,WeatherDisplay:10.37,2013-06-13 01:38:00,
2013-06-12 20:43:00,81.3,36.4,27.19,North,0,0.0,0.0,20,0.00,CLR,OVC,0.00,WeatherDisplay:10.37,2013-06-13 01:43:00,
2013-06-12 20:48:00,81.1,36.2,27.19,North,0,0.0,0.0,20,0.00,CLR,OVC,0.00,WeatherDisplay:10.37,2013-06-13 01:48:00,
2013-06-12 20:53:00,81.0,36.1,27.19,North,0,0.0,0.0,20,0.00,CLR,OVC,0.00,WeatherDisplay:10.37,2013-06-13 01:53:00,
2013-06-12 20:58:00,80.8,36.0,27.19,North,0,0.0,0.0,20,0.00,CLR,OVC,0.00,WeatherDisplay:10.37,2013-06-13 01:58:00,
2013-06-12 21:03:00,80.8,36.0,27.19,North,0,0.0,0.0,20,0.00,CLR,OVC,0.00,WeatherDisplay:10.37,2013-06-13 02:03:00,
2013-06-12 21:08:00,80.6,35.8,27.19,North,0,0.0,0.0,20,0.00,CLR,OVC,0.00,WeatherDisplay:10.37,2013-06-13 02:08:00,
2013-06-12 21:13:00,80.6,37.0,27.19,North,0,0.0,0.0,21,0.00,CLR,OVC,0.00,WeatherDisplay:10.37,2013-06-13 02:13:00,
2013-06-12 21:18:00,80.8,37.2,27.19,North,0,0.0,0.0,21,0.00,SCT,OVC,0.00,WeatherDisplay:10.37,2013-06-13 02:18:00,
2013-06-12 21:23:00,80.6,35.8,27.19,North,0,0.0,0.0,20,0.00,SCT,OVC,0.00,WeatherDisplay:10.37,2013-06-13 02:23:00,
2013-06-12 21:28:00,80.2,35.5,27.19,North,0,0.0,0.0,20,0.00,SCT,OVC,0.00,WeatherDisplay:10.37,2013-06-13 02:28:00,
2013-06-12 21:33:00,79.5,34.9,27.19,North,0,0.0,0.0,20,0.00,SCT,OVC,0.00,WeatherDisplay:10.37,2013-06-13 02:33:00,
2013-06-12 21:38:00,79.0,34.5,27.19,North,0,0.0,0.0,20,0.00,SCT,OVC,0.00,WeatherDisplay:10.37,2013-06-13 02:38:00,
2013-06-12 21:43:00,78.4,35.2,27.19,North,0,0.0,0.0,21,0.00,SCT,OVC,0.00,WeatherDisplay:10.37,2013-06-13 02:43:00,
2013-06-12 21:48:00,78.1,37.3,27.19,North,0,0.0,0.0,23,0.00,SCT,OVC,0.00,WeatherDisplay:10.37,2013-06-13 02:48:00,
2013-06-12 21:53:00,77.9,37.1,27.19,North,0,0.0,0.0,23,0.00,SCT,OVC,0.00,WeatherDisplay:10.37,2013-06-13 02:53:00,
2013-06-12 21:58:00,77.9,38.2,27.19,North,0,0.0,0.0,24,0.00,SCT,OVC,0.00,WeatherDisplay:10.37,2013-06-13 02:58:00,
2013-06-12 22:03:00,78.1,38.3,27.19,North,0,0.0,0.0,24,0.00,FEW,OVC,0.00,WeatherDisplay:10.37,2013-06-13 03:03:00,
2013-06-12 22:08:00,78.3,39.5,27.19,North,0,0.0,0.0,25,0.00,FEW,OVC,0.00,WeatherDisplay:10.37,2013-06-13 03:08:00,
2013-06-12 22:13:00,78.4,39.7,27.19,North,0,0.0,0.0,25,0.00,FEW,OVC,0.00,WeatherDisplay:10.37,2013-06-13 03:13:00,
2013-06-12 22:18:00,78.4,38.6,27.19,North,0,0.0,0.0,24,0.00,FEW,OVC,0.00,WeatherDisplay:10.37,2013-06-13 03:18:00,
2013-06-12 22:23:00,78.6,37.7,27.19,North,0,0.0,0.0,23,0.00,FEW,OVC,0.00,WeatherDisplay:10.37,2013-06-13 03:23:00,
2013-06-12 22:28:00,78.4,37.6,27.19,North,0,0.0,0.0,23,0.00,FEW,OVC,0.00,WeatherDisplay:10.37,2013-06-13 03:28:00,
2013-06-12 22:33:00,78.1,38.3,27.19,North,0,0.0,0.0,24,0.00,FEW,OVC,0.00,WeatherDisplay:10.37,2013-06-13 03:33:00,
2013-06-12 22:38:00,77.7,38.0,27.19,North,0,0.0,0.0,24,0.00,FEW,OVC,0.00,WeatherDisplay:10.37,2013-06-13 03:38:00,
2013-06-12 22:43:00,77.5,37.9,27.19,North,0,0.0,0.0,24,0.00,FEW,OVC,0.00,WeatherDisplay:10.37,2013-06-13 03:43:00,
2013-06-12 22:48:00,77.4,37.7,27.19,North,0,0.0,0.0,24,0.00,FEW,OVC,0.00,WeatherDisplay:10.37,2013-06-13 03:48:00,
2013-06-12 22:53:00,77.0,36.3,27.19,North,0,0.0,0.0,23,0.00,FEW,OVC,0.00,WeatherDisplay:10.37,2013-06-13 03:53:00,
2013-06-12 22:58:00,76.8,37.3,27.19,North,0,0.0,0.0,24,0.00,FEW,OVC,0.00,WeatherDisplay:10.37,2013-06-13 03:58:00,
2013-06-12 23:01:00,76.6,37.1,27.19,North,0,0.0,0.0,24,0.00,BKN,OVC,0.00,WeatherDisplay:10.37,2013-06-13 04:01:00,
2013-06-12 23:02:00,76.6,37.1,27.19,North,0,0.0,0.0,24,0.00,BKN,OVC,0.00,WeatherDisplay:10.37,2013-06-13 04:02:00,
2013-06-12 23:07:00,76.3,36.8,27.19,North,0,0.0,0.0,24,0.00,BKN,OVC,0.00,WeatherDisplay:10.37,2013-06-13 04:07:00,
2013-06-12 23:12:00,75.9,36.5,27.19,North,0,0.0,0.0,24,0.00,BKN,OVC,0.00,WeatherDisplay:10.37,2013-06-13 04:12:00,
2013-06-12 23:17:00,75.6,36.2,27.19,North,0,0.0,0.0,24,0.00,BKN,OVC,0.00,WeatherDisplay:10.37,2013-06-13 04:17:00,
2013-06-12 23:22:00,75.4,36.1,27.19,North,0,0.0,0.0,24,0.00,BKN,OVC,0.00,WeatherDisplay:10.37,2013-06-13 04:22:00,
2013-06-12 23:27:00,75.0,35.8,27.19,North,0,0.0,0.0,24,0.00,BKN,OVC,0.00,WeatherDisplay:10.37,2013-06-13 04:27:00,
2013-06-12 23:32:00,74.8,36.6,27.19,North,0,0.0,0.0,25,0.00,BKN,OVC,0.00,WeatherDisplay:10.37,2013-06-13 04:32:00,
2013-06-12 23:37:00,74.7,36.5,27.19,North,0,0.0,0.0,25,0.00,BKN,OVC,0.00,WeatherDisplay:10.37,2013-06-13 04:37:00,
2013-06-12 23:42:00,74.7,36.5,27.19,North,0,0.0,0.0,25,0.00,BKN,OVC,0.00,WeatherDisplay:10.37,2013-06-13 04:42:00,
2013-06-12 23:47:00,74.5,36.3,27.19,North,0,0.0,0.0,25,0.00,BKN,OVC,0.00,WeatherDisplay:10.37,2013-06-13 04:47:00,
2013-06-12 23:52:00,74.3,36.2,27.19,North,0,0.0,0.0,25,0.00,BKN,OVC,0.00,WeatherDisplay:10.37,2013-06-13 04:52:00,
2013-06-12 23:57:00,74.3,36.2,27.19,North,0,0.0,0.0,25,0.00,BKN,OVC,0.00,WeatherDisplay:10.37,2013-06-13 04:57:00,